createdAt,value
2019-04-27T08:16:10.371Z,99.99
2019-04-27T08:17:10.364Z,99.99
2019-04-27T08:18:10.361Z,99.99
2019-04-27T08:19:10.369Z,99.99
2019-04-27T08:20:10.382Z,99.99
2019-04-27T08:21:10.390Z,99.99
2019-04-27T08:22:10.403Z,99.99
2019-04-27T08:23:10.402Z,99.99
2019-04-27T08:24:11.238Z,99.99
2019-04-27T08:25:10.412Z,99.99
2019-04-27T08:26:10.425Z,99.99
2019-04-27T08:28:10.572Z,99.99
2019-04-27T08:29:10.447Z,99.99
2019-04-27T08:30:10.451Z,99.99
2019-04-27T08:31:10.469Z,99.99
2019-04-27T08:32:10.474Z,99.99
2019-04-27T08:33:10.487Z,99.99
2019-04-27T08:34:10.476Z,99.99
2019-04-27T08:35:10.488Z,99.99
2019-04-27T08:36:10.493Z,99.99
2019-04-27T08:37:10.513Z,99.99
2019-04-27T08:38:10.621Z,99.99
2019-04-27T08:39:10.519Z,99.99
2019-04-27T08:40:10.538Z,99.99
2019-04-27T08:41:10.637Z,99.99
2019-04-27T08:42:10.538Z,99.99
2019-04-27T08:43:10.545Z,99.99
2019-04-27T08:44:10.553Z,99.99
2019-04-27T08:45:10.568Z,99.99
2019-04-27T08:46:10.568Z,99.99
2019-04-27T08:47:10.572Z,99.99
2019-04-27T08:48:10.578Z,99.99
2019-04-27T08:49:10.581Z,99.99
2019-04-27T08:50:10.595Z,99.99
2019-04-27T08:51:10.605Z,99.99
2019-04-27T08:52:10.608Z,99.99
2019-04-27T08:53:10.618Z,99.99
2019-04-27T08:54:10.625Z,99.99
2019-04-27T08:56:10.635Z,99.99
2019-04-27T08:57:10.652Z,99.99
2019-04-27T08:58:10.655Z,99.99
2019-04-27T08:59:10.659Z,99.99
2019-04-27T09:00:10.676Z,99.99
2019-04-27T09:01:10.672Z,99.99
2019-04-27T09:02:10.689Z,99.99
2019-04-27T09:03:10.695Z,99.99
2019-04-27T09:04:11.291Z,99.99
2019-04-27T09:05:10.706Z,99.99
2019-04-27T09:06:10.704Z,99.99
2019-04-27T09:07:10.720Z,99.99
2019-04-27T09:08:10.725Z,99.99
2019-04-27T09:09:10.738Z,99.99
2019-04-27T09:10:10.738Z,99.99
2019-04-27T09:11:10.756Z,99.99
2019-04-27T09:12:10.752Z,99.99
2019-04-27T09:13:10.770Z,99.99
2019-04-27T09:14:10.771Z,99.99
2019-04-27T09:15:10.776Z,99.99
2019-04-27T09:16:11.161Z,99.99
2019-04-27T09:17:10.789Z,99.99
2019-04-27T09:18:10.801Z,99.99
2019-04-27T09:19:10.810Z,99.99
2019-04-27T09:20:10.812Z,99.99
2019-04-27T09:21:10.823Z,99.99
2019-04-27T09:22:16.138Z,99.99
2019-04-27T09:23:10.839Z,99.99
2019-04-27T09:24:10.845Z,99.99
2019-04-27T09:25:10.851Z,99.99
2019-04-27T09:26:11.167Z,99.99
2019-04-27T09:27:10.863Z,99.99
2019-04-27T09:28:10.873Z,99.99
2019-04-27T09:29:10.886Z,99.99
2019-04-27T09:30:10.887Z,99.99
2019-04-27T09:31:10.891Z,99.99
2019-04-27T09:32:10.912Z,99.99
2019-04-27T09:33:10.911Z,99.99
2019-04-27T09:34:12.657Z,99.99
2019-04-27T09:35:10.934Z,99.99
2019-04-27T09:36:10.950Z,99.99
2019-04-27T09:37:10.952Z,99.99
2019-04-27T09:38:10.954Z,99.99
2019-04-27T09:39:10.965Z,99.99
2019-04-27T09:40:10.980Z,99.99
2019-04-27T09:41:10.975Z,99.99
2019-04-27T09:42:11.006Z,99.99
2019-04-27T09:43:10.992Z,99.99
2019-04-27T09:44:11.010Z,99.99
2019-04-27T09:45:11.022Z,99.99
2019-04-27T09:46:11.022Z,99.99
2019-04-27T09:47:11.024Z,99.99
2019-04-27T09:48:11.044Z,99.99
2019-04-27T09:49:12.216Z,99.99
2019-04-27T09:50:11.053Z,99.99
2019-04-27T09:51:11.058Z,99.99
2019-04-27T09:52:23.359Z,99.99
2019-04-27T09:53:11.210Z,99.99
2019-04-27T09:54:11.083Z,99.99
2019-04-27T09:55:11.096Z,99.99
2019-04-27T09:56:11.138Z,99.99
2019-04-27T09:57:11.128Z,99.99
2019-04-27T09:58:11.123Z,99.99
2019-04-27T09:59:11.134Z,99.99
2019-04-27T10:00:11.142Z,99.99
2019-04-27T10:01:11.151Z,99.99
2019-04-27T10:02:11.160Z,99.99
2019-04-27T10:03:11.193Z,99.99
2019-04-27T10:04:11.172Z,99.99
2019-04-27T10:05:11.173Z,99.99
2019-04-27T10:06:11.185Z,99.99
2019-04-27T10:07:11.216Z,99.99
2019-04-27T10:08:11.204Z,99.99
2019-04-27T10:09:11.207Z,99.99
2019-04-27T10:10:11.213Z,99.99
2019-04-27T10:11:11.254Z,99.99
2019-04-27T10:12:11.238Z,99.99
2019-04-27T10:13:11.250Z,99.99
2019-04-27T10:14:11.243Z,99.99
2019-04-27T10:15:11.270Z,99.99
2019-04-27T10:16:11.281Z,99.99
2019-04-27T10:17:11.288Z,99.99
2019-04-27T10:18:11.295Z,99.99
2019-04-27T10:19:11.294Z,99.99
2019-04-27T10:20:11.339Z,99.99
2019-04-27T10:21:11.314Z,99.99
2019-04-27T10:22:11.363Z,99.99
2019-04-27T10:23:11.329Z,99.99
2019-04-27T10:24:11.335Z,99.99
2019-04-27T10:25:11.340Z,99.99
2019-04-27T10:26:11.348Z,99.99
2019-04-27T10:27:11.359Z,99.99
2019-04-27T10:28:11.368Z,99.99
2019-04-27T10:29:11.373Z,99.99
2019-04-27T10:30:11.387Z,99.99
2019-04-27T10:31:11.386Z,99.99
2019-04-27T10:32:11.409Z,99.99
2019-04-27T10:33:11.408Z,99.99
2019-04-27T10:34:11.418Z,99.99
2019-04-27T10:35:11.423Z,99.99
2019-04-27T10:36:11.437Z,99.99
2019-04-27T10:37:11.429Z,99.99
2019-04-27T10:38:11.453Z,99.99
2019-04-27T10:39:13.239Z,99.99
2019-04-27T10:40:11.459Z,99.99
2019-04-27T10:41:11.475Z,99.99
2019-04-27T10:42:11.480Z,99.99
2019-04-27T10:43:11.485Z,99.99
2019-04-27T10:44:11.496Z,99.99
2019-04-27T10:45:11.502Z,99.99
2019-04-27T10:46:11.583Z,99.99
2019-04-27T10:47:11.509Z,99.99
2019-04-27T10:48:11.522Z,99.99
2019-04-27T10:49:11.533Z,99.99
2019-04-27T10:50:11.546Z,99.99
2019-04-27T10:51:11.554Z,99.99
2019-04-27T10:52:11.574Z,99.99
2019-04-27T10:53:11.571Z,99.99
2019-04-27T10:54:11.576Z,99.99
2019-04-27T10:55:11.588Z,99.99
2019-04-27T10:56:11.596Z,99.99
2019-04-27T10:57:11.605Z,99.99
2019-04-27T10:58:11.616Z,99.99
2019-04-27T10:59:11.626Z,99.99
2019-04-27T11:00:11.631Z,99.99
2019-04-27T11:01:11.635Z,99.99
2019-04-27T11:02:11.659Z,99.99
2019-04-27T11:03:11.652Z,99.99
2019-04-27T11:04:11.664Z,99.99
2019-04-27T11:05:11.683Z,99.99
2019-04-27T11:06:11.687Z,99.99
2019-04-27T11:07:11.685Z,99.99
2019-04-27T11:08:11.694Z,99.99
2019-04-27T11:09:11.708Z,99.99
2019-04-27T11:10:11.719Z,99.99
2019-04-27T11:11:11.723Z,99.99
2019-04-27T11:12:11.726Z,99.99
2019-04-27T11:13:11.739Z,99.99
2019-04-27T11:14:11.753Z,99.99
2019-04-27T11:15:11.762Z,99.99
2019-04-27T11:16:11.762Z,99.99
2019-04-27T11:17:11.774Z,99.99
2019-04-27T11:18:11.781Z,99.99
2019-04-27T11:19:11.782Z,99.99
2019-04-27T11:20:11.801Z,99.99
2019-04-27T11:21:11.793Z,99.99
2019-04-27T11:22:11.812Z,99.99
2019-04-27T11:23:12.370Z,99.99
2019-04-27T11:24:11.824Z,99.99
2019-04-27T11:25:11.834Z,99.99
2019-04-27T11:26:11.833Z,99.99
2019-04-27T11:27:11.855Z,99.99
2019-04-27T11:28:11.851Z,99.99
2019-04-27T11:29:11.864Z,99.99
2019-04-27T11:30:11.861Z,99.99
2019-04-27T11:31:11.878Z,99.99
2019-04-27T11:32:11.889Z,99.99
2019-04-27T11:33:11.885Z,99.99
2019-04-27T11:34:11.901Z,99.99
2019-04-27T11:35:11.927Z,99.99
2019-04-27T11:36:14.833Z,99.99
2019-04-27T11:37:11.920Z,99.99
2019-04-27T11:38:11.911Z,99.99
2019-04-27T11:39:11.927Z,99.99
2019-04-27T11:40:11.934Z,99.99
2019-04-27T11:41:11.940Z,99.99
2019-04-27T11:42:11.944Z,99.99
2019-04-27T11:43:11.945Z,99.99
2019-04-27T11:44:11.960Z,99.99
2019-04-27T11:45:11.977Z,99.99
2019-04-27T11:46:11.978Z,99.99
2019-04-27T11:47:11.977Z,99.99
2019-04-27T11:48:11.991Z,99.99
2019-04-27T11:49:12.003Z,99.99
2019-04-27T11:50:12.007Z,99.99
2019-04-27T11:51:12.003Z,99.99
2019-04-27T11:52:12.013Z,99.99
2019-04-27T11:53:22.099Z,99.99
2019-04-27T11:54:12.042Z,99.99
2019-04-27T11:55:12.043Z,99.99
2019-04-27T11:56:12.046Z,99.99
2019-04-27T11:57:12.059Z,99.99
2019-04-27T11:58:12.057Z,99.99
2019-04-27T11:59:12.064Z,99.99
2019-04-27T12:00:12.068Z,99.99
2019-04-27T12:01:12.079Z,99.99
2019-04-27T12:02:12.086Z,99.99
2019-04-27T12:03:12.094Z,99.99
2019-04-27T12:04:12.103Z,99.99
2019-04-27T12:05:12.184Z,99.99
2019-04-27T12:06:12.103Z,99.99
2019-04-27T12:07:12.123Z,99.99
2019-04-27T12:08:12.120Z,99.99
2019-04-27T12:09:12.131Z,99.99
2019-04-27T12:10:12.134Z,99.99
2019-04-27T12:11:12.142Z,99.99
2019-04-27T12:12:16.993Z,99.99
2019-04-27T12:13:12.165Z,99.99
2019-04-27T12:14:12.160Z,99.99
2019-04-27T12:15:12.186Z,99.99
2019-04-27T12:16:12.177Z,99.99
2019-04-27T12:17:12.192Z,99.99
2019-04-27T12:18:12.195Z,99.99
2019-04-27T12:19:12.200Z,99.99
2019-04-27T12:21:12.214Z,99.99
2019-04-27T12:22:12.212Z,99.99
2019-04-27T12:23:12.222Z,99.99
2019-04-27T12:24:12.219Z,99.99
2019-04-27T12:25:12.240Z,99.99
2019-04-27T12:26:12.245Z,99.99
2019-04-27T12:27:12.258Z,99.99
2019-04-27T12:28:12.278Z,99.99
2019-04-27T12:29:12.264Z,99.99
2019-04-27T12:30:12.273Z,99.99
2019-04-27T12:31:12.281Z,99.99
2019-04-27T12:32:12.289Z,99.99
2019-04-27T12:33:12.313Z,99.99
2019-04-27T12:34:12.301Z,99.41
2019-04-27T12:35:12.316Z,99.99
2019-04-27T12:36:12.341Z,99.99
2019-04-27T12:37:12.328Z,99.99
2019-04-27T12:39:12.341Z,99.99
2019-04-27T12:40:12.350Z,99.99
2019-04-27T12:41:12.362Z,99.99
2019-04-27T12:42:12.372Z,99.99
2019-04-27T12:43:12.374Z,99.99
2019-04-27T12:44:12.395Z,99.99
2019-04-27T12:45:12.398Z,99.46
2019-04-27T12:46:12.396Z,99.99
2019-04-27T12:47:12.408Z,99.99
2019-04-27T12:48:12.417Z,99.99
2019-04-27T12:49:12.408Z,99.99
2019-04-27T12:50:12.427Z,98.94
2019-04-27T12:51:12.474Z,99.99
2019-04-27T12:52:12.443Z,99.99
2019-04-27T12:53:12.485Z,99.99
2019-04-27T12:54:12.475Z,99.99
2019-04-27T12:55:12.462Z,99.99
2019-04-27T12:56:12.470Z,99.46
2019-04-27T12:57:12.496Z,99.18
2019-04-27T12:58:12.488Z,97.71
2019-04-27T12:59:12.510Z,97.51
2019-04-27T13:00:12.501Z,95.84
2019-04-27T13:01:12.629Z,93.55
2019-04-27T13:02:12.526Z,94.22
2019-04-27T13:03:12.547Z,91.98
2019-04-27T13:04:12.532Z,92.17
2019-04-27T13:05:12.554Z,93.88
2019-04-27T13:06:12.558Z,93.98
2019-04-27T13:07:12.563Z,94.84
2019-04-27T13:08:12.572Z,94.12
2019-04-27T13:09:12.581Z,93.36
2019-04-27T13:10:12.593Z,94.22
2019-04-27T13:11:12.608Z,94.79
2019-04-27T13:12:12.611Z,96.03
2019-04-27T13:13:12.625Z,96.22
2019-04-27T13:14:12.621Z,95.94
2019-04-27T13:15:12.639Z,96.32
2019-04-27T13:16:12.643Z,96.94
2019-04-27T13:17:12.655Z,98.08
2019-04-27T13:18:12.649Z,99.08
2019-04-27T13:19:12.671Z,98.90
2019-04-27T13:20:12.682Z,99.08
2019-04-27T13:21:12.675Z,97.75
2019-04-27T13:22:12.721Z,97.17
2019-04-27T13:24:12.707Z,98.56
2019-04-27T13:25:12.714Z,98.56
2019-04-27T13:26:12.722Z,98.08
2019-04-27T13:27:12.734Z,98.18
2019-04-27T13:28:12.735Z,97.70
2019-04-27T13:29:12.745Z,97.41
2019-04-27T13:30:12.772Z,98.90
2019-04-27T13:31:12.760Z,99.75
2019-04-27T13:32:12.766Z,97.46
2019-04-27T13:33:12.785Z,96.80
2019-04-27T13:34:12.788Z,96.51
2019-04-27T13:35:12.781Z,97.17
2019-04-27T13:36:12.795Z,94.70
2019-04-27T13:37:12.811Z,94.70
2019-04-27T13:38:12.823Z,94.93
2019-04-27T13:39:12.837Z,95.79
2019-04-27T13:40:12.825Z,94.84
2019-04-27T13:41:25.603Z,94.65
2019-04-27T13:42:12.840Z,93.88
2019-04-27T13:43:12.848Z,93.74
2019-04-27T13:44:12.871Z,91.83
2019-04-27T13:45:12.868Z,92.26
2019-04-27T13:46:12.884Z,90.35
2019-04-27T13:47:12.885Z,89.68
2019-04-27T13:48:12.898Z,89.39
2019-04-27T13:49:12.905Z,88.34
2019-04-27T13:50:12.914Z,88.92
2019-04-27T13:51:12.914Z,88.44
2019-04-27T13:52:12.941Z,87.92
2019-04-27T13:53:12.949Z,89.73
2019-04-27T13:54:18.813Z,90.83
2019-04-27T13:55:12.956Z,92.36
2019-04-27T13:56:12.966Z,93.12
2019-04-27T13:58:12.987Z,93.93
2019-04-27T13:59:14.637Z,93.65
2019-04-27T14:00:12.995Z,93.55
2019-04-27T14:01:13.021Z,92.79
2019-04-27T14:02:13.546Z,92.50
2019-04-27T14:03:14.370Z,92.07
2019-04-27T14:04:13.991Z,92.36
2019-04-27T14:05:13.049Z,91.88
2019-04-27T14:06:13.054Z,91.40
2019-04-27T14:08:13.074Z,91.74
2019-04-27T14:09:13.078Z,92.41
2019-04-27T14:10:13.091Z,92.97
2019-04-27T14:11:13.097Z,94.03
2019-04-27T14:12:13.109Z,92.97
2019-04-27T14:13:13.121Z,92.83
2019-04-27T14:14:13.136Z,92.93
2019-04-27T14:15:13.135Z,93.70
2019-04-27T14:16:13.148Z,93.41
2019-04-27T14:17:13.165Z,93.46
2019-04-27T14:18:13.165Z,94.98
2019-04-27T14:19:13.181Z,95.65
2019-04-27T14:20:13.187Z,96.70
2019-04-27T14:21:13.203Z,97.37
2019-04-27T14:22:13.210Z,97.75
2019-04-27T14:23:13.211Z,96.98
2019-04-27T14:24:13.230Z,96.22
2019-04-27T14:25:13.239Z,96.61
2019-04-27T14:26:13.238Z,96.03
2019-04-27T14:27:13.257Z,96.03
2019-04-27T14:28:13.255Z,94.98
2019-04-27T14:29:13.272Z,95.41
2019-04-27T14:30:13.276Z,92.88
2019-04-27T14:31:13.296Z,92.02
2019-04-27T14:32:13.304Z,93.17
2019-04-27T14:33:13.307Z,93.02
2019-04-27T14:34:13.317Z,92.30
2019-04-27T14:35:13.325Z,91.35
2019-04-27T14:36:13.432Z,90.30
2019-04-27T14:37:13.337Z,89.92
2019-04-27T14:38:13.349Z,89.29
2019-04-27T14:39:13.361Z,88.24
2019-04-27T14:40:13.370Z,88.10
2019-04-27T14:41:13.375Z,88.96
2019-04-27T14:42:13.397Z,89.25
2019-04-27T14:43:13.391Z,89.53
2019-04-27T14:44:13.414Z,89.63
2019-04-27T14:45:13.432Z,90.20
2019-04-27T14:46:13.427Z,90.20
2019-04-27T14:47:13.438Z,89.53
2019-04-27T14:48:13.445Z,88.68
2019-04-27T14:49:13.464Z,88.73
2019-04-27T14:50:13.478Z,88.77
2019-04-27T14:51:13.483Z,88.48
2019-04-27T14:52:13.491Z,88.77
2019-04-27T14:53:13.500Z,89.25
2019-04-27T14:54:13.505Z,88.87
2019-04-27T14:55:13.521Z,88.20
2019-04-27T14:56:13.527Z,88.73
2019-04-27T14:57:13.531Z,89.82
2019-04-27T14:58:13.542Z,89.25
2019-04-27T14:59:13.559Z,88.24
2019-04-27T15:00:13.566Z,87.57
2019-04-27T15:01:13.572Z,85.99
2019-04-27T15:02:13.580Z,83.36
2019-04-27T15:03:13.594Z,82.26
2019-04-27T15:04:13.599Z,82.45
2019-04-27T15:05:13.616Z,81.92
2019-04-27T15:06:13.858Z,81.15
2019-04-27T15:07:13.860Z,80.04
2019-04-27T15:08:14.023Z,79.18
2019-04-27T15:09:18.034Z,76.92
2019-04-27T15:10:14.031Z,76.25
2019-04-27T15:11:17.458Z,76.79
2019-04-27T15:12:15.359Z,78.76
2019-04-27T15:13:13.705Z,80.63
2019-04-27T15:14:16.233Z,82.56
2019-04-27T15:15:13.712Z,84.95
2019-04-27T15:16:13.736Z,85.33
2019-04-27T15:17:17.724Z,84.76
2019-04-27T15:18:13.756Z,85.33
2019-04-27T15:19:17.762Z,85.47
2019-04-27T15:20:13.787Z,84.99
2019-04-27T15:21:13.782Z,83.98
2019-04-27T15:22:19.474Z,82.83
2019-04-27T15:23:13.803Z,82.60
2019-04-27T15:24:13.827Z,82.64
2019-04-27T15:25:15.738Z,82.74
2019-04-27T15:26:15.399Z,81.97
2019-04-27T15:27:13.847Z,82.60
2019-04-27T15:28:15.272Z,83.37
2019-04-27T15:29:13.869Z,84.19
2019-04-27T15:30:14.391Z,84.95
2019-04-27T15:31:22.795Z,86.19
2019-04-27T15:32:13.893Z,86.57
2019-04-27T15:33:16.061Z,87.24
2019-04-27T15:34:13.916Z,86.61
2019-04-27T15:35:13.921Z,85.81
2019-04-27T15:36:14.707Z,85.33
2019-04-27T15:37:13.940Z,86.19
2019-04-27T15:38:14.168Z,86.10
2019-04-27T15:39:13.964Z,86.57
2019-04-27T15:40:13.968Z,86.57
2019-04-27T15:41:13.969Z,86.53
2019-04-27T15:42:13.980Z,86.82
2019-04-27T15:43:14.009Z,87.25
2019-04-27T15:44:13.999Z,88.49
2019-04-27T15:45:15.965Z,89.45
2019-04-27T15:47:14.032Z,89.83
2019-04-27T15:48:14.040Z,90.21
2019-04-27T15:49:14.058Z,89.73
2019-04-27T15:50:14.064Z,91.83
2019-04-27T15:51:17.533Z,95.41
2019-04-27T15:52:14.073Z,99.99
2019-04-27T15:53:14.080Z,99.99
2019-04-27T15:54:14.099Z,99.99
2019-04-27T15:55:31.855Z,99.99
2019-04-27T15:56:14.106Z,99.99
2019-04-27T15:57:14.118Z,99.99
2019-04-27T15:58:14.122Z,99.99
2019-04-27T15:59:14.140Z,99.99
2019-04-27T16:00:17.648Z,99.99
2019-04-27T16:01:14.142Z,99.99
2019-04-27T16:02:15.592Z,99.99
2019-04-27T16:03:14.152Z,99.99
2019-04-27T16:04:14.156Z,99.99
2019-04-27T16:05:16.792Z,99.99
2019-04-27T16:06:14.168Z,99.99
2019-04-27T16:07:18.166Z,99.99
2019-04-27T16:08:15.670Z,99.99
2019-04-27T16:09:15.955Z,99.99
2019-04-27T16:10:14.200Z,99.99
2019-04-27T16:11:16.516Z,99.99
2019-04-27T16:12:14.209Z,99.99
2019-04-27T16:13:15.272Z,99.99
2019-04-27T16:14:14.229Z,99.99
2019-04-27T16:15:17.594Z,99.99
2019-04-27T16:16:14.230Z,99.99
2019-04-27T16:17:14.241Z,99.99
2019-04-27T16:18:14.243Z,99.99
2019-04-27T16:19:14.251Z,99.99
2019-04-27T16:20:14.261Z,99.99
2019-04-27T16:21:14.265Z,99.99
2019-04-27T16:22:14.258Z,99.99
2019-04-27T16:23:14.265Z,99.99
2019-04-27T16:24:17.140Z,99.99
2019-04-27T16:25:14.281Z,99.99
2019-04-27T16:26:15.288Z,99.99
2019-04-27T16:27:14.293Z,99.99
2019-04-27T16:28:14.315Z,99.99
2019-04-27T16:29:14.315Z,99.99
2019-04-27T16:30:17.917Z,99.99
2019-04-27T16:31:14.317Z,99.99
2019-04-27T16:32:14.321Z,99.99
2019-04-27T16:33:15.416Z,99.99
2019-04-27T16:34:14.446Z,99.99
2019-04-27T16:35:19.483Z,99.99
2019-04-27T16:36:14.522Z,99.99
2019-04-27T16:37:20.714Z,99.99
2019-04-27T16:38:14.603Z,99.99
2019-04-27T16:39:14.461Z,99.99
2019-04-27T16:40:17.602Z,99.99
2019-04-27T16:41:14.530Z,99.99
2019-04-27T16:42:15.378Z,99.99
2019-04-27T16:43:14.390Z,99.99
2019-04-27T16:44:14.389Z,99.99
2019-04-27T16:45:14.403Z,99.99
2019-04-27T16:46:14.422Z,99.99
2019-04-27T16:47:18.888Z,99.99
2019-04-27T16:48:14.428Z,99.99
2019-04-27T16:49:15.074Z,99.99
2019-04-27T16:50:14.439Z,99.99
2019-04-27T16:52:16.014Z,99.99
2019-04-27T16:53:14.457Z,99.99
2019-04-27T16:54:17.486Z,99.99
2019-04-27T16:55:17.353Z,99.99
2019-04-27T16:56:16.425Z,99.99
2019-04-27T16:57:14.478Z,99.99
2019-04-27T16:58:15.862Z,99.99
2019-04-27T16:59:36.594Z,99.99
2019-04-27T17:00:14.511Z,99.99
2019-04-27T17:01:14.511Z,99.99
2019-04-27T17:02:17.369Z,99.99
2019-04-27T17:03:14.518Z,99.99
2019-04-27T17:04:15.088Z,99.99
2019-04-27T17:05:14.526Z,99.99
2019-04-27T17:06:14.535Z,99.99
2019-04-27T17:07:14.548Z,99.99
2019-04-27T17:08:22.458Z,99.99
2019-04-27T17:09:14.549Z,99.99
2019-04-27T17:10:16.292Z,99.99
2019-04-27T17:11:14.579Z,99.99
2019-04-27T17:12:14.578Z,99.99
2019-04-27T17:13:14.729Z,99.99
2019-04-27T17:14:14.590Z,99.99
2019-04-27T17:15:14.600Z,99.99
2019-04-27T17:16:14.614Z,99.99
2019-04-27T17:17:14.615Z,99.99
2019-04-27T17:18:14.617Z,99.99
2019-04-27T17:19:14.625Z,99.99
2019-04-27T17:20:19.580Z,99.99
2019-04-27T17:21:18.895Z,99.99
2019-04-27T17:22:16.261Z,99.99
2019-04-27T17:23:14.639Z,99.99
2019-04-27T17:24:14.652Z,99.99
2019-04-27T17:25:15.316Z,99.99
2019-04-27T17:26:23.300Z,99.99
2019-04-27T17:27:16.283Z,99.99
2019-04-27T17:28:16.027Z,99.99
2019-04-27T17:29:16.559Z,99.99
2019-04-27T17:30:14.678Z,99.99
2019-04-27T17:31:19.656Z,99.99
2019-04-27T17:32:17.302Z,99.99
2019-04-27T17:33:15.577Z,99.99
2019-04-27T17:34:18.275Z,99.99
2019-04-27T17:35:15.147Z,99.99
2019-04-27T17:36:16.259Z,99.99
2019-04-27T17:37:14.723Z,99.99
2019-04-27T17:38:15.932Z,99.99
2019-04-27T17:39:14.747Z,99.99
2019-04-27T17:40:15.593Z,99.99
2019-04-27T17:41:14.751Z,99.99
2019-04-27T17:43:14.788Z,99.99
2019-04-27T17:44:19.278Z,99.99
2019-04-27T17:45:14.771Z,99.99
2019-04-27T17:46:14.771Z,99.99
2019-04-27T17:47:14.794Z,99.99
2019-04-27T17:49:14.812Z,99.99
2019-04-27T17:50:18.403Z,99.99
2019-04-27T17:51:14.805Z,99.99
2019-04-27T17:52:17.177Z,99.99
2019-04-27T17:53:14.822Z,99.99
2019-04-27T17:54:14.841Z,99.99
2019-04-27T17:55:19.546Z,99.99
2019-04-27T17:56:14.841Z,99.99
2019-04-27T17:57:14.857Z,99.99
2019-04-27T17:58:17.831Z,99.99
2019-04-27T17:59:16.829Z,99.99
2019-04-27T18:00:14.869Z,99.99
2019-04-27T18:01:19.091Z,99.99
2019-04-27T18:02:14.875Z,99.99
2019-04-27T18:03:19.378Z,99.99
2019-04-27T18:04:14.898Z,99.99
2019-04-27T18:05:15.100Z,99.99
2019-04-27T18:06:14.914Z,99.99
2019-04-27T18:07:14.908Z,99.99
2019-04-27T18:08:19.996Z,99.99
2019-04-27T18:09:14.926Z,99.99
2019-04-27T18:10:22.774Z,99.99
2019-04-27T18:11:14.966Z,99.99
2019-04-27T18:12:15.853Z,99.99
2019-04-27T18:13:20.851Z,99.99
2019-04-27T18:14:14.949Z,99.99
2019-04-27T18:15:16.122Z,99.99
2019-04-27T18:16:14.965Z,99.99
2019-04-27T18:17:15.003Z,99.99
2019-04-27T18:18:14.980Z,99.99
2019-04-27T18:19:14.987Z,99.99
2019-04-27T18:20:15.003Z,99.99
2019-04-27T18:21:15.007Z,99.99
2019-04-27T18:22:15.004Z,99.99
2019-04-27T18:23:16.117Z,99.99
2019-04-27T18:24:15.020Z,99.99
2019-04-27T18:25:15.023Z,99.99
2019-04-27T18:26:17.441Z,99.99
2019-04-27T18:27:15.041Z,99.99
2019-04-27T18:28:16.109Z,99.99
2019-04-27T18:29:15.046Z,99.99
2019-04-27T18:30:15.176Z,99.99
2019-04-27T18:31:16.141Z,99.99
2019-04-27T18:32:15.071Z,99.99
2019-04-27T18:33:15.088Z,99.99
2019-04-27T18:34:16.971Z,99.99
2019-04-27T18:35:15.081Z,99.99
2019-04-27T18:36:15.089Z,99.99
2019-04-27T18:37:20.895Z,99.99
2019-04-27T18:38:15.108Z,99.99
2019-04-27T18:39:15.109Z,99.99
2019-04-27T18:40:15.113Z,99.99
2019-04-27T18:41:15.135Z,99.99
2019-04-27T18:42:15.126Z,99.99
2019-04-27T18:43:15.137Z,99.99
2019-04-27T18:44:15.633Z,99.99
2019-04-27T18:45:15.139Z,99.99
2019-04-27T18:46:22.006Z,99.99
2019-04-27T18:47:15.489Z,99.99
2019-04-27T18:48:15.150Z,99.99
2019-04-27T18:49:15.161Z,99.99
2019-04-27T18:50:15.175Z,99.99
2019-04-27T18:51:15.169Z,99.99
2019-04-27T18:52:15.179Z,99.99
2019-04-27T18:53:16.355Z,99.99
2019-04-27T18:54:15.193Z,99.99
2019-04-27T18:55:16.759Z,99.99
2019-04-27T18:56:15.201Z,99.99
2019-04-27T18:57:16.411Z,99.99
2019-04-27T18:58:15.215Z,99.99
2019-04-27T18:59:15.220Z,99.99
2019-04-27T19:00:15.243Z,99.99
2019-04-27T19:01:15.238Z,99.99
2019-04-27T19:02:15.236Z,99.99
2019-04-27T19:03:15.243Z,99.99
2019-04-27T19:04:15.250Z,99.99
2019-04-27T19:05:15.260Z,99.99
2019-04-27T19:06:15.255Z,99.99
2019-04-27T19:07:15.264Z,99.99
2019-04-27T19:08:15.283Z,99.99
2019-04-27T19:09:15.285Z,99.99
2019-04-27T19:11:15.300Z,99.99
2019-04-27T19:12:15.295Z,99.99
2019-04-27T19:13:15.314Z,99.99
2019-04-27T19:14:15.314Z,99.99
2019-04-27T19:15:15.322Z,99.99
2019-04-27T19:16:15.351Z,99.99
2019-04-27T19:17:15.322Z,99.99
2019-04-27T19:18:15.337Z,99.99
2019-04-27T19:19:15.361Z,99.99
2019-04-27T19:20:15.334Z,99.99
2019-04-27T19:21:15.353Z,99.99
2019-04-27T19:22:15.375Z,99.99
2019-04-27T19:23:15.364Z,99.99
2019-04-27T19:24:15.399Z,99.99
2019-04-27T19:25:15.373Z,99.99
2019-04-27T19:26:15.392Z,99.99
2019-04-27T19:27:18.571Z,99.99
2019-04-27T19:28:15.404Z,99.99
2019-04-27T19:29:15.395Z,99.99
2019-04-27T19:30:15.419Z,99.99
2019-04-27T19:31:15.419Z,99.99
2019-04-27T19:32:15.430Z,99.99
2019-04-27T19:33:15.429Z,99.99
2019-04-27T19:34:15.420Z,99.99
2019-04-27T19:35:15.438Z,99.99
2019-04-27T19:37:15.441Z,99.99
2019-04-27T19:38:15.444Z,99.99
2019-04-27T19:39:15.476Z,99.99
2019-04-27T19:40:15.463Z,99.99
2019-04-27T19:41:15.467Z,99.99
2019-04-27T19:42:15.485Z,99.99
2019-04-27T19:43:15.482Z,99.99
2019-04-27T19:44:15.488Z,99.99
2019-04-27T19:45:15.491Z,99.99
2019-04-27T19:46:15.489Z,99.99
2019-04-27T19:47:15.504Z,99.99
2019-04-27T19:49:15.509Z,99.99
2019-04-27T19:50:15.515Z,99.99
2019-04-27T19:51:15.527Z,99.99
2019-04-27T19:52:15.521Z,99.99
2019-04-27T19:53:15.518Z,99.99
2019-04-27T19:54:15.532Z,99.99
2019-04-27T19:55:15.533Z,99.99
2019-04-27T19:56:15.540Z,99.99
2019-04-27T19:57:15.543Z,99.99
2019-04-27T19:58:15.555Z,99.99
2019-04-27T19:59:15.552Z,99.99
2019-04-27T20:00:15.584Z,99.99
2019-04-27T20:01:15.571Z,99.99
2019-04-27T20:02:15.571Z,99.99
2019-04-27T20:03:15.577Z,99.99
2019-04-27T20:04:15.582Z,99.99
2019-04-27T20:05:17.009Z,99.99
2019-04-27T20:06:15.620Z,99.99
2019-04-27T20:07:15.614Z,99.99
2019-04-27T20:08:15.607Z,99.99
2019-04-27T20:53:41.864Z,99.99
2019-04-27T20:55:40.171Z,99.99
2019-04-27T20:56:44.176Z,99.99
2019-04-27T20:57:41.604Z,99.99
2019-04-27T20:58:38.156Z,99.99
2019-04-27T21:02:37.672Z,99.99
2019-04-27T21:03:41.651Z,99.99
2019-04-27T21:04:42.665Z,99.99
2019-04-27T21:05:40.976Z,99.99
2019-04-27T21:06:37.658Z,99.99
2019-04-27T21:07:37.654Z,99.99
2019-04-27T21:08:36.986Z,99.99
2019-04-27T21:09:36.981Z,99.99
2019-04-27T21:10:36.988Z,99.99
2019-04-27T21:11:36.989Z,99.99
2019-04-27T21:12:37.010Z,99.99
2019-04-27T21:13:36.993Z,99.99
2019-04-27T21:14:37.025Z,99.99
2019-04-27T21:15:37.093Z,99.99
2019-04-27T21:16:37.031Z,99.99
2019-04-27T21:17:37.021Z,99.99
2019-04-27T21:18:37.025Z,99.99
2019-04-27T21:19:37.029Z,99.99
2019-04-27T21:20:37.044Z,99.99
2019-04-27T21:21:37.043Z,99.99
2019-04-27T21:22:37.041Z,99.99
2019-04-27T21:24:37.061Z,99.99
2019-04-27T21:25:37.059Z,99.99
2019-04-27T21:26:37.066Z,99.99
2019-04-27T21:27:37.068Z,99.99
2019-04-27T21:28:37.073Z,99.99
2019-04-27T21:30:37.080Z,99.99
2019-04-27T21:31:37.087Z,99.99
2019-04-27T21:32:37.094Z,99.99
2019-04-27T21:33:37.098Z,99.99
2019-04-27T21:34:37.098Z,99.99
2019-04-27T21:35:37.093Z,99.99
2019-04-27T21:36:37.110Z,99.99
2019-04-27T21:38:37.120Z,99.99
2019-04-27T21:39:37.132Z,99.99
2019-04-27T21:40:37.128Z,99.99
2019-04-27T21:41:37.135Z,99.99
2019-04-27T21:42:37.148Z,99.99
2019-04-27T21:43:37.145Z,99.99
2019-04-27T21:44:37.139Z,99.99
2019-04-27T21:45:37.153Z,99.99
2019-04-27T21:46:37.157Z,99.99
2019-04-27T21:47:37.156Z,99.99
2019-04-27T21:48:37.165Z,99.99
2019-04-27T21:50:37.274Z,99.99
2019-04-27T21:51:37.183Z,99.99
2019-04-27T21:52:37.183Z,99.99
2019-04-27T21:53:37.181Z,99.99
2019-04-27T21:54:37.190Z,99.99
2019-04-27T21:55:37.199Z,99.99
2019-04-27T21:56:37.205Z,99.99
2019-04-27T21:57:37.210Z,99.99
2019-04-27T21:58:37.214Z,99.99
2019-04-27T21:59:37.219Z,99.99
2019-04-27T22:01:37.237Z,99.99
2019-04-27T22:02:37.245Z,99.99
2019-04-27T22:03:37.229Z,99.99
2019-04-27T22:04:37.251Z,99.99
2019-04-27T22:07:37.587Z,99.99
2019-04-27T22:08:37.261Z,99.99
2019-04-27T22:09:37.273Z,99.99
2019-04-27T22:11:37.279Z,99.99
2019-04-27T22:12:37.268Z,99.99
2019-04-27T22:14:37.291Z,99.99
2019-04-27T22:15:37.296Z,99.99
2019-04-27T22:16:37.310Z,99.99
2019-04-27T22:17:37.307Z,99.99
2019-04-27T22:18:37.309Z,99.99
2019-04-27T22:19:37.315Z,99.99